Time;durP1;ratioP1;P1;durP2;ratioP2;P2;SDS_P1;SDS_P2;PMS_P1;PMS_P2;Temp;Humidity;BMP_temperature;BMP_pressure;BME280_temperature;BME280_humidity;BME280_pressure;Samples;Min_cycle;Max_cycle;Signal;HPM_P1;HPM_P2
2023/10/19 00:00:19;;;;;;;;;;;;;;;21.53;53.05;100960.31;7394374;19;1858;-40
2023/10/19 00:02:48;;;;;;;;;;;;;;;21.51;52.72;100962.31;7394513;19;1864;-40
2023/10/19 00:05:15;;;;;;;;;;;;;;;21.49;52.86;100954.38;7395298;19;1610;-40
2023/10/19 00:07:44;;;;;;;;;;;;;;;21.47;53.16;100971.66;7394207;19;1739;-40
2023/10/19 00:10:15;;;;;;;;;;;;;;;21.47;52.88;100966.25;7394075;19;1600;-40
2023/10/19 00:12:44;;;;;;;;;;;;;;;21.48;52.93;100962.59;7393258;19;1810;-41
2023/10/19 00:15:12;;;;;;;;;;;;;;;21.47;52.79;100960.88;7393375;19;1494;-40
2023/10/19 00:17:44;;;;;;;;;;;;;;;21.48;53.00;100978.75;7390728;19;1767;-41
2023/10/19 00:22:53;;;;;;;;;;;;;;;21.44;52.84;100940.50;7390892;19;1901;-40
2023/10/19 00:25:24;;;;;;;;;;;;;;;21.44;52.73;100937.81;7394156;19;1787;-41
2023/10/19 00:27:52;;;;;;;;;;;;;;;21.45;52.75;100942.22;7394105;19;1782;-41
2023/10/19 00:30:23;;;;;;;;;;;;;;;21.37;52.78;100934.00;7379557;19;1471;-41
2023/10/19 00:32:52;;;;;;;;;;;;;;;21.39;52.99;100946.31;7393912;19;1845;-43
2023/10/19 00:35:34;;;;;;;;;;;;;;;21.41;52.92;100947.00;7392075;19;1748;-41
2023/10/19 00:38:21;;;;;;;;;;;;;;;21.38;52.88;100936.53;7392060;19;1461;-41
2023/10/19 00:40:58;;;;;;;;;;;;;;;21.39;52.73;100932.84;7393130;19;1855;-41
2023/10/19 00:43:34;;;;;;;;;;;;;;;21.38;52.92;100925.78;7393698;19;1665;-41
2023/10/19 00:46:09;;;;;;;;;;;;;;;21.33;52.87;100922.69;7392976;19;1741;-41
2023/10/19 00:48:39;;;;;;;;;;;;;;;21.38;52.59;100935.69;7392093;19;1921;-41
2023/10/19 00:51:26;;;;;;;;;;;;;;;21.39;52.59;100932.03;7393262;19;1739;-41
2023/10/19 00:53:55;;;;;;;;;;;;;;;21.39;52.78;100921.25;7393565;19;1486;-41
2023/10/19 00:56:31;;;;;;;;;;;;;;;21.42;52.74;100918.25;7393067;19;1739;-41
2023/10/19 00:59:00;;;;;;;;;;;;;;;21.43;52.81;100941.53;7392753;19;1690;-40
2023/10/19 01:01:31;;;;;;;;;;;;;;;21.43;52.55;100922.69;7391992;19;1858;-40
2023/10/19 01:04:00;;;;;;;;;;;;;;;21.45;52.61;100931.47;7391859;19;1335;-40
2023/10/19 01:06:31;;;;;;;;;;;;;;;21.44;52.61;100925.22;7390999;19;1498;-41
2023/10/19 01:09:02;;;;;;;;;;;;;;;21.48;52.36;100919.53;7394799;19;988;-41
2023/10/19 01:11:35;;;;;;;;;;;;;;;21.37;52.69;100917.88;7394065;19;1712;-40
2023/10/19 01:14:20;;;;;;;;;;;;;;;21.40;52.87;100926.47;7392963;19;1999;-41
2023/10/19 01:16:49;;;;;;;;;;;;;;;21.34;52.64;100919.00;7392430;19;1558;-41
2023/10/19 01:19:19;;;;;;;;;;;;;;;21.38;52.73;100916.84;7393547;19;1696;-45
2023/10/19 01:21:51;;;;;;;;;;;;;;;21.32;52.70;100923.66;7392428;19;1850;-42
2023/10/19 01:24:33;;;;;;;;;;;;;;;21.32;52.79;100914.75;7393621;19;1546;-40
2023/10/19 01:27:03;;;;;;;;;;;;;;;21.29;52.73;100921.28;7393298;19;1366;-40
2023/10/19 01:29:32;;;;;;;;;;;;;;;21.32;52.83;100920.13;7380218;19;1153;-41
2023/10/19 01:32:06;;;;;;;;;;;;;;;21.33;52.80;100928.06;7400156;19;1846;-41
2023/10/19 01:34:34;;;;;;;;;;;;;;;21.36;52.60;100922.38;7397377;19;1565;-41
2023/10/19 01:37:03;;;;;;;;;;;;;;;21.39;52.71;100932.84;7398768;19;1467;-41
2023/10/19 01:39:36;;;;;;;;;;;;;;;21.35;52.68;100926.09;7399282;19;1672;-41
2023/10/19 01:42:05;;;;;;;;;;;;;;;21.28;52.85;100908.81;7397761;19;1837;-42
2023/10/19 01:44:35;;;;;;;;;;;;;;;21.31;52.82;100913.91;7399489;19;1192;-41
2023/10/19 01:47:01;;;;;;;;;;;;;;;21.32;52.77;100922.84;7399527;19;1685;-41
2023/10/19 01:49:30;;;;;;;;;;;;;;;21.25;52.95;100925.28;7398805;19;1593;-41
2023/10/19 01:51:56;;;;;;;;;;;;;;;21.28;52.64;100916.88;7398970;19;1819;-40
2023/10/19 01:54:25;;;;;;;;;;;;;;;21.32;52.75;100920.13;7398809;19;1815;-41
2023/10/19 01:56:56;;;;;;;;;;;;;;;21.33;52.51;100928.06;7397137;19;1536;-40
2023/10/19 01:59:27;;;;;;;;;;;;;;;21.37;52.65;100928.63;7395813;19;1273;-40
2023/10/19 02:01:53;;;;;;;;;;;;;;;21.31;52.54;100911.22;7397163;19;1846;-41
2023/10/19 02:04:21;;;;;;;;;;;;;;;21.34;52.68;100920.84;7397121;19;1403;-40
2023/10/19 02:06:48;;;;;;;;;;;;;;;21.42;52.46;100912.88;7395908;19;2433;-41
2023/10/19 02:09:21;;;;;;;;;;;;;;;21.38;52.40;100915.00;7398817;19;1248;-41
2023/10/19 02:11:48;;;;;;;;;;;;;;;21.35;52.45;100909.94;7398658;19;1491;-40
2023/10/19 02:14:20;;;;;;;;;;;;;;;21.32;52.26;100907.53;7398248;19;1456;-40
2023/10/19 02:16:47;;;;;;;;;;;;;;;21.28;52.53;100903.44;7397618;19;1620;-41
2023/10/19 02:19:15;;;;;;;;;;;;;;;21.30;52.55;100917.59;7397849;19;1709;-40
2023/10/19 02:21:41;;;;;;;;;;;;;;;21.25;52.61;100904.59;7397692;19;1890;-41
2023/10/19 02:24:14;;;;;;;;;;;;;;;21.27;52.65;100936.72;7395484;19;1708;-40
2023/10/19 02:26:40;;;;;;;;;;;;;;;21.22;52.43;100910.25;7397242;19;1454;-41
2023/10/19 02:29:09;;;;;;;;;;;;;;;21.29;52.62;100905.16;7383464;19;1851;-40
2023/10/19 02:31:39;;;;;;;;;;;;;;;21.25;52.54;100914.50;7397606;19;1506;-40
2023/10/19 02:34:09;;;;;;;;;;;;;;;21.29;52.38;100909.66;7397662;19;1442;-41
2023/10/19 02:36:37;;;;;;;;;;;;;;;21.25;52.46;100885.78;7397438;19;1608;-41
2023/10/19 02:39:07;;;;;;;;;;;;;;;21.28;52.24;100881.09;7397313;19;1737;-41
2023/10/19 02:41:35;;;;;;;;;;;;;;;21.24;52.45;100892.13;7396252;19;1859;-41
2023/10/19 02:44:08;;;;;;;;;;;;;;;21.24;52.27;100896.66;7396981;19;1831;-40
2023/10/19 02:46:38;;;;;;;;;;;;;;;21.24;52.47;100892.13;7396465;19;1463;-40
2023/10/19 02:49:10;;;;;;;;;;;;;;;21.21;52.40;100892.44;7397743;19;1835;-41
2023/10/19 02:51:37;;;;;;;;;;;;;;;21.25;52.42;100903.75;7395501;19;1368;-40
2023/10/19 02:54:08;;;;;;;;;;;;;;;21.19;52.58;100882.81;7395774;19;1494;-41
2023/10/19 02:56:35;;;;;;;;;;;;;;;21.24;52.35;100902.03;7396306;19;1570;-40
2023/10/19 02:59:04;;;;;;;;;;;;;;;21.22;52.20;100890.59;7395813;19;1533;-41
2023/10/19 03:01:33;;;;;;;;;;;;;;;21.23;52.41;100900.38;7395156;19;1861;-40
2023/10/19 03:04:04;;;;;;;;;;;;;;;21.28;52.11;100891.84;7394702;19;1565;-41
2023/10/19 03:06:32;;;;;;;;;;;;;;;21.29;52.18;100883.63;7394383;19;1463;-41
2023/10/19 03:09:02;;;;;;;;;;;;;;;21.25;52.23;100891.16;7395637;19;1826;-40
2023/10/19 03:11:28;;;;;;;;;;;;;;;21.28;52.13;100887.31;7392905;19;1853;-42
2023/10/19 03:13:57;;;;;;;;;;;;;;;21.30;52.22;100895.22;7393287;19;1537;-41
2023/10/19 03:16:23;;;;;;;;;;;;;;;21.23;52.11;100885.06;7395142;19;1212;-40
2023/10/19 03:18:54;;;;;;;;;;;;;;;21.24;52.13;100889.44;7394924;19;1843;-41
2023/10/19 03:21:26;;;;;;;;;;;;;;;21.21;52.00;100880.84;7396066;19;1867;-42
2023/10/19 03:23:56;;;;;;;;;;;;;;;21.17;52.36;100901.78;7395452;19;1519;-42
2023/10/19 03:26:30;;;;;;;;;;;;;;;21.18;52.32;100887.34;7395968;19;1515;-42
2023/10/19 03:29:07;;;;;;;;;;;;;;;21.20;52.22;100887.19;7378723;19;1826;-41
2023/10/19 03:31:43;;;;;;;;;;;;;;;21.24;52.20;100886.75;7395102;19;1670;-42
2023/10/19 03:34:12;;;;;;;;;;;;;;;21.20;52.30;100863.00;7395362;19;1671;-42
2023/10/19 03:36:44;;;;;;;;;;;;;;;21.21;52.48;100880.84;7394473;19;1466;-42
2023/10/19 03:39:14;;;;;;;;;;;;;;;21.22;52.43;100871.75;7395872;19;1636;-42
2023/10/19 03:41:44;;;;;;;;;;;;;;;21.23;52.36;100876.16;7394109;19;1839;-42
2023/10/19 03:44:18;;;;;;;;;;;;;;;21.29;52.56;100874.69;7393590;19;1830;-42
2023/10/19 03:46:57;;;;;;;;;;;;;;;21.31;52.24;100876.25;7396711;19;1479;-41
2023/10/19 03:49:27;;;;;;;;;;;;;;;21.38;52.15;100876.50;7393471;19;1367;-42
2023/10/19 03:52:02;;;;;;;;;;;;;;;21.35;52.07;100874.97;7393829;19;1415;-42
2023/10/19 03:54:32;;;;;;;;;;;;;;;21.27;52.29;100869.50;7397414;19;1685;-42
2023/10/19 03:57:05;;;;;;;;;;;;;;;21.20;52.43;100868.38;7395236;19;1456;-41
2023/10/19 03:59:34;;;;;;;;;;;;;;;21.22;52.30;100863.69;7395879;19;1534;-41
2023/10/19 04:02:09;;;;;;;;;;;;;;;21.09;52.64;100855.97;7394078;19;1855;-41
2023/10/19 04:04:38;;;;;;;;;;;;;;;20.93;48.03;100855.72;7394263;19;1482;-42
2023/10/19 04:07:18;;;;;;;;;;;;;;;20.86;50.24;100872.44;7393151;19;1321;-42
2023/10/19 04:12:28;;;;;;;;;;;;;;;20.67;50.64;100850.97;7393823;19;2136;-41
2023/10/19 04:14:57;;;;;;;;;;;;;;;20.67;50.16;100867.09;7394652;19;1668;-42
2023/10/19 04:17:26;;;;;;;;;;;;;;;20.66;50.31;100854.66;7393366;19;1724;-42
2023/10/19 04:19:55;;;;;;;;;;;;;;;20.60;49.80;100868.69;7395921;19;1759;-42
2023/10/19 04:22:26;;;;;;;;;;;;;;;20.57;50.07;100856.34;7393511;19;1849;-42
2023/10/19 04:24:54;;;;;;;;;;;;;;;20.73;49.17;100857.59;7394734;19;1478;-41
2023/10/19 04:27:23;;;;;;;;;;;;;;;20.79;49.44;100852.53;7395008;19;1763;-42
2023/10/19 04:29:52;;;;;;;;;;;;;;;20.61;49.90;100856.91;7381527;19;1542;-41
2023/10/19 04:32:25;;;;;;;;;;;;;;;20.52;49.04;100841.66;7394912;19;1748;-41
2023/10/19 04:34:53;;;;;;;;;;;;;;;20.49;46.71;100848.13;7394238;19;1866;-41
2023/10/19 04:37:23;;;;;;;;;;;;;;;20.42;47.44;100868.53;7393262;19;1423;-42
2023/10/19 04:39:55;;;;;;;;;;;;;;;20.46;47.85;100851.13;7390889;19;1575;-42
2023/10/19 04:42:23;;;;;;;;;;;;;;;20.34;47.65;100853.13;7388197;19;1835;-41
2023/10/19 04:44:51;;;;;;;;;;;;;;;20.33;47.70;100854.09;7393837;19;1817;-41
2023/10/19 04:47:20;;;;;;;;;;;;;;;20.31;47.67;100852.53;7393994;19;1325;-41
2023/10/19 04:49:48;;;;;;;;;;;;;;;20.32;47.71;100848.88;7392339;19;1715;-41
2023/10/19 04:52:17;;;;;;;;;;;;;;;20.32;47.70;100886.47;7389569;19;1847;-41
2023/10/19 04:54:46;;;;;;;;;;;;;;;20.31;46.61;100855.22;7390677;19;1661;-41
2023/10/19 04:57:17;;;;;;;;;;;;;;;20.29;46.59;100863.41;7392432;19;1784;-41
2023/10/19 04:59:45;;;;;;;;;;;;;;;20.31;46.78;100857.91;7390122;19;1665;-41
2023/10/19 05:02:13;;;;;;;;;;;;;;;20.31;46.77;100863.28;7388107;19;1893;-42
2023/10/19 05:04:42;;;;;;;;;;;;;;;20.35;46.80;100862.00;7388086;19;1458;-41
2023/10/19 05:07:12;;;;;;;;;;;;;;;20.41;46.46;100856.06;7388574;19;1698;-41
2023/10/19 05:09:41;;;;;;;;;;;;;;;20.49;46.25;100852.66;7388584;19;1719;-41
2023/10/19 05:12:09;;;;;;;;;;;;;;;20.54;45.93;100853.09;7388081;19;1713;-41
2023/10/19 05:14:41;;;;;;;;;;;;;;;20.59;45.55;100859.78;7391868;19;1565;-41
2023/10/19 05:17:10;;;;;;;;;;;;;;;20.60;45.63;100866.81;7391555;19;1542;-41
2023/10/19 05:19:39;;;;;;;;;;;;;;;20.64;45.42;100865.53;7393611;19;1771;-41
2023/10/19 05:22:08;;;;;;;;;;;;;;;20.64;45.47;100852.13;7392604;19;1837;-41
2023/10/19 05:24:37;;;;;;;;;;;;;;;20.65;45.17;100867.25;7393685;19;1366;-41
2023/10/19 05:27:05;;;;;;;;;;;;;;;20.64;44.94;100843.22;7393235;19;1860;-41
2023/10/19 05:29:34;;;;;;;;;;;;;;;20.70;45.31;100876.72;7378125;19;1712;-41
2023/10/19 05:32:05;;;;;;;;;;;;;;;20.76;44.60;100852.81;7393567;19;1749;-41
2023/10/19 05:34:35;;;;;;;;;;;;;;;20.82;44.60;100854.91;7393036;19;1464;-41
2023/10/19 05:37:05;;;;;;;;;;;;;;;20.89;44.55;100871.31;7392149;19;1819;-41
2023/10/19 05:39:33;;;;;;;;;;;;;;;20.94;44.70;100857.44;7390746;19;1575;-41
2023/10/19 05:42:02;;;;;;;;;;;;;;;21.00;44.62;100857.69;7392234;19;1852;-41
2023/10/19 05:44:31;;;;;;;;;;;;;;;21.04;44.33;100851.00;7392785;19;1514;-41
2023/10/19 05:46:59;;;;;;;;;;;;;;;21.13;44.51;100862.75;7392212;19;1930;-41
2023/10/19 05:49:31;;;;;;;;;;;;;;;21.13;44.42;100857.38;7391118;19;1828;-41
2023/10/19 05:51:59;;;;;;;;;;;;;;;21.13;44.51;100857.38;7392591;19;1767;-41
2023/10/19 05:54:27;;;;;;;;;;;;;;;21.24;44.46;100853.63;7392299;19;1818;-41
2023/10/19 05:56:55;;;;;;;;;;;;;;;21.29;44.29;100862.13;7391786;19;1566;-41
2023/10/19 05:59:26;;;;;;;;;;;;;;;21.35;44.36;100856.13;7391589;19;1747;-41
2023/10/19 06:01:54;;;;;;;;;;;;;;;21.39;44.42;100848.63;7389140;19;1844;-41
2023/10/19 06:04:23;;;;;;;;;;;;;;;21.40;44.25;100848.44;7390700;19;1550;-41
2023/10/19 06:06:54;;;;;;;;;;;;;;;21.45;44.46;100866.88;7391907;19;1748;-41
2023/10/19 06:09:29;;;;;;;;;;;;;;;21.56;44.04;100852.38;7390564;19;1851;-41
2023/10/19 06:11:57;;;;;;;;;;;;;;;21.60;44.02;100848.38;7391728;19;1646;-41
2023/10/19 06:14:25;;;;;;;;;;;;;;;21.69;44.10;100863.63;7391089;19;1533;-41
2023/10/19 06:16:54;;;;;;;;;;;;;;;21.69;44.05;100852.88;7398406;19;1666;-41
2023/10/19 06:19:22;;;;;;;;;;;;;;;21.50;44.10;100863.75;7397960;19;1475;-41
2023/10/19 06:21:52;;;;;;;;;;;;;;;21.67;44.35;100862.94;7399213;19;1689;-41
2023/10/19 06:24:23;;;;;;;;;;;;;;;21.70;44.33;100838.41;7399757;19;1727;-41
2023/10/19 06:26:52;;;;;;;;;;;;;;;21.53;44.48;100850.84;7398520;19;1874;-41
2023/10/19 06:29:24;;;;;;;;;;;;;;;21.49;44.61;100851.28;7397908;19;1712;-41
2023/10/19 06:31:53;;;;;;;;;;;;;;;21.38;44.51;100845.06;7384082;19;1747;-41
2023/10/19 06:34:21;;;;;;;;;;;;;;;21.67;44.34;100857.56;7398326;19;1839;-41
2023/10/19 06:36:50;;;;;;;;;;;;;;;21.65;44.40;100864.94;7397181;19;1668;-41
2023/10/19 06:39:21;;;;;;;;;;;;;;;21.60;44.50;100859.16;7398793;19;1534;-41
2023/10/19 06:41:52;;;;;;;;;;;;;;;21.55;44.42;100856.09;7399152;19;1869;-41
2023/10/19 06:44:22;;;;;;;;;;;;;;;21.48;44.92;100858.50;7396426;19;1847;-41
2023/10/19 06:46:50;;;;;;;;;;;;;;;21.57;44.77;100860.31;7398655;19;1794;-41
2023/10/19 06:49:19;;;;;;;;;;;;;;;21.47;45.17;100856.81;7399323;19;1843;-41
2023/10/19 06:52:00;;;;;;;;;;;;;;;21.45;44.81;100859.66;7398462;19;1454;-41
2023/10/19 06:54:29;;;;;;;;;;;;;;;21.56;44.78;100852.38;7397959;19;1526;-41
2023/10/19 06:57:02;;;;;;;;;;;;;;;21.53;44.68;100837.38;7396429;19;1688;-41
2023/10/19 06:59:33;;;;;;;;;;;;;;;21.56;44.88;100871.22;7395402;19;1821;-41
2023/10/19 07:02:01;;;;;;;;;;;;;;;21.57;44.77;100848.69;7396997;19;1543;-41
2023/10/19 07:04:31;;;;;;;;;;;;;;;21.68;44.50;100859.25;7393744;19;1845;-41
2023/10/19 07:07:00;;;;;;;;;;;;;;;21.71;44.28;100845.50;7397685;19;1529;-41
2023/10/19 07:09:29;;;;;;;;;;;;;;;21.66;44.29;100839.69;7397854;19;955;-42
2023/10/19 07:12:00;;;;;;;;;;;;;;;21.68;44.41;100842.25;7395088;19;1455;-41
2023/10/19 07:14:30;;;;;;;;;;;;;;;21.68;44.31;100835.00;7396623;19;1684;-41
2023/10/19 07:16:59;;;;;;;;;;;;;;;21.75;44.33;100841.50;7395717;19;1672;-41
2023/10/19 07:19:29;;;;;;;;;;;;;;;21.75;44.42;100835.28;7397258;19;1747;-41
2023/10/19 07:21:59;;;;;;;;;;;;;;;21.67;44.48;100817.19;7396056;19;1574;-41
2023/10/19 07:24:28;;;;;;;;;;;;;;;21.55;44.87;100811.19;7394852;19;1889;-41
2023/10/19 07:27:04;;;;;;;;;;;;;;;21.63;44.77;100824.72;7396171;19;1399;-41
2023/10/19 07:29:35;;;;;;;;;;;;;;;21.77;44.54;100817.97;7394946;19;1874;-41
2023/10/19 07:32:04;;;;;;;;;;;;;;;21.83;44.57;100801.19;7382630;19;1491;-41
2023/10/19 07:34:34;;;;;;;;;;;;;;;21.87;44.79;100801.75;7396066;19;1364;-41
2023/10/19 07:37:03;;;;;;;;;;;;;;;21.69;44.75;100809.81;7395106;19;1924;-41
2023/10/19 07:39:33;;;;;;;;;;;;;;;21.68;45.14;100808.09;7394821;19;1416;-41
2023/10/19 07:42:05;;;;;;;;;;;;;;;21.68;45.12;100796.50;7395820;19;1987;-41
2023/10/19 07:44:35;;;;;;;;;;;;;;;21.74;45.13;100794.03;7392303;19;1871;-41
2023/10/19 07:47:04;;;;;;;;;;;;;;;21.74;44.89;100796.72;7397285;19;1743;-41
2023/10/19 07:49:32;;;;;;;;;;;;;;;21.64;45.16;100785.19;7395440;19;1835;-41
2023/10/19 07:52:00;;;;;;;;;;;;;;;21.65;45.49;100792.28;7395879;19;1685;-41
2023/10/19 07:54:29;;;;;;;;;;;;;;;21.67;45.10;100789.44;7396312;19;1893;-41
2023/10/19 07:56:59;;;;;;;;;;;;;;;21.62;45.35;100795.25;7394977;19;1396;-41
2023/10/19 07:59:27;;;;;;;;;;;;;;;21.63;45.03;100783.50;7394884;19;1416;-41
2023/10/19 08:01:58;;;;;;;;;;;;;;;21.64;45.22;100795.94;7395271;19;1760;-41
2023/10/19 08:04:29;;;;;;;;;;;;;;;21.61;45.28;100807.03;7394097;19;1836;-41
2023/10/19 08:06:58;;;;;;;;;;;;;;;21.63;44.93;100786.19;7395346;19;1516;-41
2023/10/19 08:09:31;;;;;;;;;;;;;;;21.77;44.94;100800.97;7394540;19;1735;-41
2023/10/19 08:11:59;;;;;;;;;;;;;;;21.84;44.40;100797.53;7395549;19;1747;-41
2023/10/19 08:14:28;;;;;;;;;;;;;;;21.80;44.32;100797.97;7394745;19;1490;-41
2023/10/19 08:17:01;;;;;;;;;;;;;;;21.72;44.52;100792.50;7394269;19;1565;-41
2023/10/19 08:19:31;;;;;;;;;;;;;;;21.66;44.35;100799.34;7394718;19;1391;-41
2023/10/19 08:21:59;;;;;;;;;;;;;;;21.64;44.61;100777.13;7395192;19;1549;-41
2023/10/19 08:24:28;;;;;;;;;;;;;;;21.68;44.54;100774.97;7394581;19;1853;-41
2023/10/19 08:27:00;;;;;;;;;;;;;;;21.81;44.50;100776.28;7392735;19;1780;-41
2023/10/19 08:29:30;;;;;;;;;;;;;;;21.90;44.41;100784.44;7394136;19;1859;-41
2023/10/19 08:32:01;;;;;;;;;;;;;;;21.77;44.42;100766.00;7378992;19;1692;-41
2023/10/19 08:34:29;;;;;;;;;;;;;;;21.73;44.74;100762.75;7391485;19;2321;-39
2023/10/19 08:36:59;;;;;;;;;;;;;;;21.68;44.68;100764.19;7394640;19;1491;-41
2023/10/19 08:39:27;;;;;;;;;;;;;;;21.68;44.79;100762.34;7390811;19;1654;-41
2023/10/19 08:41:55;;;;;;;;;;;;;;;21.65;45.03;100765.38;7393183;19;1309;-41
2023/10/19 08:44:25;;;;;;;;;;;;;;;21.68;44.91;100746.19;7393080;19;1838;-41
2023/10/19 08:46:53;;;;;;;;;;;;;;;21.76;44.65;100762.44;7394414;19;1515;-39
2023/10/19 08:49:24;;;;;;;;;;;;;;;21.68;44.84;100748.91;7394486;19;1506;-39
2023/10/19 08:51:54;;;;;;;;;;;;;;;21.63;44.67;100741.28;7393216;19;1487;-41
2023/10/19 08:54:22;;;;;;;;;;;;;;;21.80;44.53;100746.81;7392527;19;1308;-41
2023/10/19 08:56:50;;;;;;;;;;;;;;;21.83;44.15;100752.75;7393880;19;1526;-41
2023/10/19 08:59:19;;;;;;;;;;;;;;;21.81;44.26;100749.38;7393100;19;1976;-39
2023/10/19 09:01:49;;;;;;;;;;;;;;;21.78;44.32;100744.28;7393250;19;1606;-39
2023/10/19 09:04:17;;;;;;;;;;;;;;;21.78;44.32;100736.19;7392018;19;1840;-39
2023/10/19 09:06:49;;;;;;;;;;;;;;;21.79;44.35;100751.38;7393767;19;1640;-39
2023/10/19 09:09:19;;;;;;;;;;;;;;;21.72;44.42;100742.19;7393431;19;1378;-40
2023/10/19 09:11:47;;;;;;;;;;;;;;;21.73;44.34;100735.00;7393378;19;1549;-41
2023/10/19 09:14:17;;;;;;;;;;;;;;;21.77;44.45;100739.06;7394892;19;1708;-41
2023/10/19 09:16:57;;;;;;;;;;;;;;;21.93;44.18;100735.69;7391648;19;1729;-41
2023/10/19 09:19:38;;;;;;;;;;;;;;;22.05;43.91;100729.03;7393749;19;1474;-41
2023/10/19 09:22:19;;;;;;;;;;;;;;;22.14;43.50;100727.25;7392081;19;2048;-41
2023/10/19 09:24:47;;;;;;;;;;;;;;;22.06;43.62;100722.63;7392514;19;1867;-41
2023/10/19 09:27:19;;;;;;;;;;;;;;;21.95;43.94;100721.03;7391233;19;1601;-41
2023/10/19 09:29:48;;;;;;;;;;;;;;;21.83;44.43;100720.44;7393560;19;1719;-41
2023/10/19 09:32:16;;;;;;;;;;;;;;;21.77;44.14;100722.91;7378822;19;1233;-41
2023/10/19 09:34:47;;;;;;;;;;;;;;;21.73;44.15;100713.47;7390993;19;1908;-41
2023/10/19 09:37:18;;;;;;;;;;;;;;;21.75;44.20;100706.91;7392817;19;1442;-41
2023/10/19 09:39:47;;;;;;;;;;;;;;;21.79;44.35;100718.22;7393602;19;1450;-41
2023/10/19 09:42:19;;;;;;;;;;;;;;;21.77;44.13;100720.22;7392305;19;1668;-41
2023/10/19 09:44:50;;;;;;;;;;;;;;;21.76;44.05;100710.44;7391449;19;1838;-45
2023/10/19 09:47:23;;;;;;;;;;;;;;;21.77;43.95;100709.47;7394555;19;1168;-41
2023/10/19 09:49:52;;;;;;;;;;;;;;;21.79;43.76;100704.75;7394587;19;1702;-42
2023/10/19 09:52:24;;;;;;;;;;;;;;;21.84;43.24;100679.06;7400202;19;1665;-41
2023/10/19 09:54:55;;;;;;;;;;;;;;;21.81;43.17;100695.53;7401261;19;1838;-41
2023/10/19 09:57:25;;;;;;;;;;;;;;;21.79;43.36;100686.75;7399955;19;1914;-41
2023/10/19 09:59:58;;;;;;;;;;;;;;;21.77;43.60;100683.38;7399649;19;1795;-40
2023/10/19 10:02:26;;;;;;;;;;;;;;;21.74;43.69;100672.91;7398476;19;1846;-39
2023/10/19 10:04:57;;;;;;;;;;;;;;;21.79;43.42;100678.69;7395658;19;1852;-41
2023/10/19 10:07:28;;;;;;;;;;;;;;;21.88;43.28;100676.06;7399277;19;1732;-43
2023/10/19 10:09:57;;;;;;;;;;;;;;;21.88;42.92;100668.81;7399773;19;1356;-42
2023/10/19 10:12:27;;;;;;;;;;;;;;;21.83;43.47;100666.59;7398784;19;1734;-41
2023/10/19 10:14:58;;;;;;;;;;;;;;;21.85;43.34;100659.22;7398893;19;1454;-41
2023/10/19 10:17:27;;;;;;;;;;;;;;;21.92;43.29;100650.50;7396189;19;1768;-41
2023/10/19 10:20:19;;;;;;;;;;;;;;;22.04;43.27;100636.63;7398795;19;1559;-41
2023/10/19 10:23:10;;;;;;;;;;;;;;;22.08;43.21;100639.84;7397137;19;2055;-39
2023/10/19 10:25:39;;;;;;;;;;;;;;;22.04;43.32;100630.38;7393577;19;1854;-39
2023/10/19 10:28:09;;;;;;;;;;;;;;;22.09;43.18;100628.06;7397859;19;1356;-39
2023/10/19 10:30:37;;;;;;;;;;;;;;;22.09;43.18;100628.06;7399143;19;1316;-39
2023/10/19 10:33:13;;;;;;;;;;;;;;;22.05;43.37;100640.16;7387431;19;1867;-40
2023/10/19 10:35:56;;;;;;;;;;;;;;;21.96;43.44;100643.81;7399094;19;1585;-39
2023/10/19 10:38:27;;;;;;;;;;;;;;;21.88;43.74;100614.13;7398869;19;1843;-42
2023/10/19 10:40:54;;;;;;;;;;;;;;;21.80;43.90;100612.22;7400178;19;1697;-41
2023/10/19 10:43:23;;;;;;;;;;;;;;;21.77;43.94;100604.50;7397922;19;1858;-41
2023/10/19 10:45:52;;;;;;;;;;;;;;;21.74;43.99;100605.63;7398176;19;1537;-41
2023/10/19 10:48:22;;;;;;;;;;;;;;;21.77;44.09;100612.56;7397450;19;1870;-41
2023/10/19 10:50:50;;;;;;;;;;;;;;;21.86;43.96;100606.22;7397705;19;1604;-39
2023/10/19 10:53:19;;;;;;;;;;;;;;;21.90;43.80;100596.81;7397494;19;1711;-39
2023/10/19 10:55:50;;;;;;;;;;;;;;;21.91;43.60;100603.06;7397891;19;1622;-39
2023/10/19 10:58:18;;;;;;;;;;;;;;;21.89;43.73;100583.53;7399607;19;1814;-41
2023/10/19 11:00:50;;;;;;;;;;;;;;;21.81;43.40;100578.94;7397304;19;1925;-39
2023/10/19 11:03:19;;;;;;;;;;;;;;;21.78;43.51;100588.16;7396889;19;1363;-40
2023/10/19 11:05:48;;;;;;;;;;;;;;;21.77;43.67;100586.47;7393389;19;1841;-42
2023/10/19 11:08:18;;;;;;;;;;;;;;;21.76;43.39;100595.53;7396682;19;1422;-41
2023/10/19 11:10:47;;;;;;;;;;;;;;;21.80;43.25;100582.63;7395055;19;1564;-42
2023/10/19 11:13:18;;;;;;;;;;;;;;;21.91;43.42;100570.75;7395387;19;1554;-42
2023/10/19 11:15:51;;;;;;;;;;;;;;;21.84;43.49;100576.78;7396036;19;1839;-41
2023/10/19 11:18:31;;;;;;;;;;;;;;;21.85;43.44;100565.00;7396383;19;1428;-42
2023/10/19 11:20:59;;;;;;;;;;;;;;;22.04;43.07;100560.38;7396987;19;1459;-41
2023/10/19 11:23:42;;;;;;;;;;;;;;;22.09;43.20;100560.75;7396711;19;1547;-41
2023/10/19 11:26:12;;;;;;;;;;;;;;;22.23;42.98;100560.13;7395578;19;2283;-41
2023/10/19 11:28:47;;;;;;;;;;;;;;;22.26;43.29;100560.84;7397062;19;1447;-41
2023/10/19 11:31:19;;;;;;;;;;;;;;;22.29;42.71;100549.75;7381033;19;1526;-41
2023/10/19 11:33:48;;;;;;;;;;;;;;;22.11;43.61;100564.13;7397534;19;1485;-41
2023/10/19 11:36:17;;;;;;;;;;;;;;;22.13;43.35;100555.91;7396336;19;1377;-41
2023/10/19 11:38:46;;;;;;;;;;;;;;;22.08;43.43;100540.19;7396753;19;1831;-41
2023/10/19 11:41:15;;;;;;;;;;;;;;;22.01;43.51;100539.19;7395174;19;1843;-41
2023/10/19 11:43:50;;;;;;;;;;;;;;;21.97;43.47;100535.94;7395892;19;1863;-41
2023/10/19 11:46:22;;;;;;;;;;;;;;;22.00;43.35;100532.09;7396684;19;1886;-41
2023/10/19 11:48:51;;;;;;;;;;;;;;;22.06;43.03;100536.81;7396385;19;1570;-41
2023/10/19 11:51:19;;;;;;;;;;;;;;;21.99;43.02;100525.03;7396377;19;1773;-41
2023/10/19 11:53:48;;;;;;;;;;;;;;;22.02;43.01;100527.38;7395952;19;1549;-41
2023/10/19 11:56:16;;;;;;;;;;;;;;;22.13;42.59;100516.34;7395737;19;1744;-41
2023/10/19 11:58:47;;;;;;;;;;;;;;;22.17;42.36;100525.78;7396579;19;1644;-41
2023/10/19 12:01:16;;;;;;;;;;;;;;;22.16;42.45;100510.63;7394053;19;1518;-41
2023/10/19 12:03:45;;;;;;;;;;;;;;;22.15;42.34;100513.47;7394695;19;1220;-41
2023/10/19 12:06:18;;;;;;;;;;;;;;;22.11;42.32;100512.97;7392229;19;1843;-41
2023/10/19 12:08:47;;;;;;;;;;;;;;;21.99;42.35;100504.31;7394308;19;1909;-41
2023/10/19 12:11:18;;;;;;;;;;;;;;;21.86;42.29;100501.22;7394994;19;1403;-41
2023/10/19 12:13:50;;;;;;;;;;;;;;;21.78;42.30;100498.50;7392211;19;1379;-41
2023/10/19 12:16:19;;;;;;;;;;;;;;;21.77;42.26;100504.91;7392319;19;2674;-41
2023/10/19 12:18:48;;;;;;;;;;;;;;;21.76;42.30;100506.72;7394561;19;1750;-41
2023/10/19 12:21:17;;;;;;;;;;;;;;;21.76;42.31;100504.03;7395155;19;1628;-41
2023/10/19 12:23:50;;;;;;;;;;;;;;;21.80;42.03;100486.56;7394410;19;1835;-41
2023/10/19 12:26:19;;;;;;;;;;;;;;;21.85;41.90;100492.31;7393309;19;1845;-41
2023/10/19 12:28:50;;;;;;;;;;;;;;;21.91;41.73;100484.63;7393460;19;1545;-41
2023/10/19 12:31:18;;;;;;;;;;;;;;;21.90;42.19;100482.91;7389205;19;1478;-41
2023/10/19 12:33:47;;;;;;;;;;;;;;;21.83;42.47;100472.78;7391010;19;1589;-41
2023/10/19 12:36:31;;;;;;;;;;;;;;;21.85;42.27;100473.47;7394786;19;1859;-41
2023/10/19 12:38:59;;;;;;;;;;;;;;;21.86;42.33;100477.00;7395020;19;1327;-41
2023/10/19 12:41:28;;;;;;;;;;;;;;;21.91;42.57;100504.28;7394287;19;1811;-41
2023/10/19 12:44:02;;;;;;;;;;;;;;;21.87;42.48;100494.00;7395290;19;1753;-41
2023/10/19 12:46:30;;;;;;;;;;;;;;;21.86;42.27;100490.47;7395579;19;1751;-41
2023/10/19 12:48:58;;;;;;;;;;;;;;;21.78;42.56;100475.09;7394455;19;1815;-41
2023/10/19 12:51:27;;;;;;;;;;;;;;;21.72;42.68;100481.13;7393082;19;1497;-41
2023/10/19 12:53:55;;;;;;;;;;;;;;;21.68;42.57;100471.69;7394093;19;1449;-41
2023/10/19 12:56:28;;;;;;;;;;;;;;;21.71;42.75;100478.63;7394193;19;1415;-41
2023/10/19 12:58:59;;;;;;;;;;;;;;;21.67;42.76;100461.94;7395173;19;1848;-41
2023/10/19 13:01:28;;;;;;;;;;;;;;;21.69;43.09;100465.31;7394040;19;1423;-41
2023/10/19 13:03:56;;;;;;;;;;;;;;;21.64;43.08;100473.03;7393933;19;1374;-41
2023/10/19 13:06:29;;;;;;;;;;;;;;;21.62;43.47;100466.97;7392489;19;1871;-41
2023/10/19 13:08:57;;;;;;;;;;;;;;;21.65;43.08;100469.34;7394754;19;1795;-41